Time;durP1;ratioP1;P1;durP2;ratioP2;P2;SDS_P1;SDS_P2;PMS_P1;PMS_P2;Temp;Humidity;BMP_temperature;BMP_pressure;BME280_temperature;BME280_humidity;BME280_pressure;Samples;Min_cycle;Max_cycle;Signal;HPM_P1;HPM_P2
2022/10/30 00:00:09;;;;;;;25.25;17.60;;;17.40;99.90;;;;;;5003211;28;20110;-74
2022/10/30 00:02:34;;;;;;;27.73;17.42;;;17.40;99.90;;;;;;5000812;28;20034;-75
2022/10/30 00:05:00;;;;;;;23.42;16.55;;;17.30;99.90;;;;;;5001968;28;20037;-75
2022/10/30 00:07:25;;;;;;;22.55;17.17;;;17.30;99.90;;;;;;5002629;28;20038;-74
2022/10/30 00:09:51;;;;;;;29.00;17.67;;;17.30;99.90;;;;;;5001375;28;20652;-75
2022/10/30 00:12:16;;;;;;;26.98;17.38;;;17.30;99.90;;;;;;5002367;28;20037;-74
2022/10/30 00:14:42;;;;;;;23.55;17.50;;;17.20;99.90;;;;;;5007249;28;20146;-74
2022/10/30 00:17:07;;;;;;;26.35;17.27;;;17.20;99.90;;;;;;5002720;28;20036;-74
2022/10/30 00:19:33;;;;;;;25.65;17.08;;;17.20;99.90;;;;;;5008328;28;20034;-74
2022/10/30 00:22:01;;;;;;;26.05;18.67;;;17.20;99.90;;;;;;5002236;28;20030;-74
2022/10/30 00:24:27;;;;;;;25.65;17.35;;;17.20;99.90;;;;;;5002190;28;20509;-75
2022/10/30 00:26:53;;;;;;;25.92;18.02;;;17.10;99.90;;;;;;5003609;28;20092;-75
2022/10/30 00:29:19;;;;;;;34.20;18.95;;;17.10;99.90;;;;;;5002034;28;20022;-74
2022/10/30 00:31:44;;;;;;;29.42;18.83;;;17.10;99.90;;;;;;5009923;28;20025;-75
2022/10/30 00:34:10;;;;;;;26.67;17.38;;;17.00;99.90;;;;;;5000568;28;20033;-74
2022/10/30 00:36:36;;;;;;;30.38;18.65;;;17.00;99.90;;;;;;5000530;28;20448;-75
2022/10/30 00:39:02;;;;;;;27.52;18.05;;;16.90;99.90;;;;;;5003151;28;20030;-75
2022/10/30 00:41:28;;;;;;;22.35;17.83;;;16.90;99.90;;;;;;5000909;28;20029;-74
2022/10/30 00:43:55;;;;;;;25.23;18.65;;;16.90;99.90;;;;;;5016153;28;20038;-74
2022/10/30 00:46:35;;;;;;;26.75;17.52;;;16.90;99.90;;;;;;5001176;28;20156;-74
2022/10/30 00:49:16;;;;;;;26.10;18.33;;;16.80;99.90;;;;;;5002062;28;20065;-74
2022/10/30 00:51:50;;;;;;;26.45;16.77;;;16.80;99.90;;;;;;4991854;28;20529;-74
2022/10/30 00:54:17;;;;;;;23.75;18.33;;;16.80;99.90;;;;;;5001569;28;20037;-74
2022/10/30 00:56:45;;;;;;;27.30;18.98;;;16.80;99.90;;;;;;5002526;28;20030;-74
2022/10/30 00:59:17;;;;;;;23.95;17.98;;;16.70;99.90;;;;;;5001701;28;20029;-75
2022/10/30 01:01:45;;;;;;;23.42;18.55;;;16.70;99.90;;;;;;5001801;28;20034;-75
2022/10/30 01:04:12;;;;;;;22.45;18.27;;;16.70;99.90;;;;;;5017170;28;20110;-74
2022/10/30 01:06:52;;;;;;;25.77;19.13;;;16.70;99.90;;;;;;5017838;28;20544;-73
2022/10/30 01:09:18;;;;;;;26.58;19.13;;;16.60;99.90;;;;;;5003664;28;20034;-74
2022/10/30 01:11:44;;;;;;;29.08;21.05;;;16.60;99.90;;;;;;5004288;28;20037;-74
2022/10/30 01:14:12;;;;;;;27.40;20.48;;;16.50;99.90;;;;;;5007477;28;20061;-75
2022/10/30 01:17:01;;;;;;;27.80;20.02;;;16.50;99.90;;;;;;5002190;28;20034;-74
2022/10/30 01:19:37;;;;;;;25.65;19.35;;;16.50;99.90;;;;;;5003211;28;20033;-74
2022/10/30 01:22:33;;;;;;;31.20;19.88;;;16.40;99.90;;;;;;5006468;28;20396;-75
2022/10/30 01:25:08;;;;;;;26.50;19.00;;;16.40;99.90;;;;;;5002743;28;20050;-75
2022/10/30 01:27:43;;;;;;;27.45;19.90;;;16.30;99.90;;;;;;5002967;28;20022;-75
2022/10/30 01:30:18;;;;;;;28.35;20.58;;;16.30;99.90;;;;;;5001326;28;20037;-75
2022/10/30 01:32:58;;;;;;;26.67;20.48;;;16.30;99.90;;;;;;5001917;28;20026;-74
2022/10/30 01:35:50;;;;;;;27.42;19.00;;;16.30;99.90;;;;;;5002144;28;20030;-74
2022/10/30 01:38:26;;;;;;;23.83;18.23;;;16.30;99.90;;;;;;5001621;28;20094;-74
2022/10/30 01:40:52;;;;;;;22.08;17.77;;;16.20;99.90;;;;;;5002680;28;20061;-74
2022/10/30 01:43:17;;;;;;;23.08;18.58;;;16.20;99.90;;;;;;4999967;28;20073;-75
2022/10/30 01:46:07;;;;;;;24.92;19.25;;;16.30;99.90;;;;;;5000741;28;20038;-74
2022/10/30 01:48:48;;;;;;;24.88;16.98;;;16.20;99.90;;;;;;5001542;28;20080;-74
2022/10/30 01:51:49;;;;;;;29.17;18.42;;;16.20;99.90;;;;;;5001839;28;20038;-74
2022/10/30 01:54:31;;;;;;;28.88;19.38;;;16.20;99.90;;;;;;4999043;28;20096;-74
2022/10/30 01:57:14;;;;;;;24.38;18.17;;;16.20;99.90;;;;;;5000535;28;20099;-74
2022/10/30 01:59:57;;;;;;;27.40;19.95;;;16.10;99.90;;;;;;5001055;28;20363;-74
2022/10/30 02:02:23;;;;;;;25.20;18.50;;;16.10;99.90;;;;;;5001147;28;20073;-75
2022/10/30 02:04:49;;;;;;;32.28;20.40;;;16.10;99.90;;;;;;4999618;28;20121;-74
2022/10/30 02:07:16;;;;;;;27.33;19.00;;;16.00;99.90;;;;;;4999149;28;20791;-74
2022/10/30 02:09:42;;;;;;;28.17;18.90;;;16.00;99.90;;;;;;4999131;28;20116;-73
2022/10/30 02:12:08;;;;;;;26.17;19.33;;;16.00;99.90;;;;;;5002777;28;20030;-73
2022/10/30 02:14:38;;;;;;;26.67;19.10;;;16.00;99.90;;;;;;5002455;28;20034;-74
2022/10/30 02:17:06;;;;;;;26.15;19.10;;;16.00;99.90;;;;;;5008145;28;20040;-73
2022/10/30 02:19:31;;;;;;;26.65;19.40;;;16.00;99.90;;;;;;4999855;28;20026;-74
2022/10/30 02:21:57;;;;;;;24.85;18.90;;;16.00;99.90;;;;;;4999189;28;21123;-74
2022/10/30 02:24:23;;;;;;;23.45;18.23;;;16.00;99.90;;;;;;4999708;28;20077;-74
2022/10/30 02:26:48;;;;;;;27.83;18.25;;;15.90;99.90;;;;;;5000082;28;20071;-74
2022/10/30 02:29:14;;;;;;;24.92;16.85;;;15.90;99.90;;;;;;5000405;28;20027;-75
2022/10/30 02:31:39;;;;;;;24.30;17.52;;;15.90;99.90;;;;;;5001540;28;20043;-74
2022/10/30 02:34:06;;;;;;;24.58;17.67;;;15.80;99.90;;;;;;4998839;28;20021;-74
2022/10/30 02:36:32;;;;;;;24.45;18.67;;;15.80;99.90;;;;;;4999984;28;20125;-75
2022/10/30 02:38:57;;;;;;;24.70;18.25;;;15.80;99.90;;;;;;5002974;28;20595;-74
2022/10/30 02:41:23;;;;;;;22.85;18.73;;;15.80;99.90;;;;;;5001362;28;20030;-74
2022/10/30 02:43:51;;;;;;;25.70;17.02;;;15.70;99.90;;;;;;5000153;28;20062;-74
2022/10/30 02:46:16;;;;;;;21.52;17.10;;;15.80;99.90;;;;;;4998291;28;20045;-73
2022/10/30 02:48:42;;;;;;;23.77;17.95;;;15.80;99.90;;;;;;4999542;28;20033;-73
2022/10/30 02:51:08;;;;;;;24.08;17.40;;;15.70;99.90;;;;;;4998107;28;20086;-73
2022/10/30 02:53:34;;;;;;;22.67;16.85;;;15.70;99.90;;;;;;4999247;28;20025;-74
2022/10/30 02:56:07;;;;;;;21.13;16.92;;;15.70;99.90;;;;;;4998375;28;20029;-74
2022/10/30 02:58:35;;;;;;;25.35;17.02;;;15.70;99.90;;;;;;5000127;28;20034;-74
2022/10/30 03:01:14;;;;;;;24.83;16.17;;;15.70;99.90;;;;;;4999929;28;20032;-74
2022/10/30 03:03:40;;;;;;;22.40;16.25;;;15.60;99.90;;;;;;5000178;28;20036;-74
2022/10/30 03:06:08;;;;;;;24.77;16.65;;;15.70;99.90;;;;;;4999539;28;20033;-75
2022/10/30 03:08:34;;;;;;;22.42;15.73;;;15.60;99.90;;;;;;4998129;28;20034;-75
2022/10/30 03:11:08;;;;;;;26.58;17.95;;;15.60;99.90;;;;;;5005735;28;20030;-75
2022/10/30 03:13:35;;;;;;;24.52;16.58;;;15.60;99.90;;;;;;5002675;28;20022;-74
2022/10/30 03:16:03;;;;;;;24.35;15.80;;;15.60;99.90;;;;;;5002951;28;20038;-75
2022/10/30 03:18:29;;;;;;;24.17;16.52;;;15.60;99.90;;;;;;5002619;28;20023;-74
2022/10/30 03:20:59;;;;;;;24.10;17.02;;;15.60;99.90;;;;;;5004385;28;20512;-75
2022/10/30 03:23:25;;;;;;;22.08;16.60;;;15.60;99.90;;;;;;5003597;28;20065;-74
2022/10/30 03:25:54;;;;;;;20.85;16.45;;;15.60;99.90;;;;;;5001625;28;20124;-74
2022/10/30 03:28:20;;;;;;;27.52;16.95;;;15.50;99.90;;;;;;5003399;28;20057;-74
2022/10/30 03:30:46;;;;;;;24.02;16.02;;;15.60;99.90;;;;;;5005142;28;20125;-75
2022/10/30 03:33:12;;;;;;;21.35;15.52;;;15.60;99.90;;;;;;5009472;28;20081;-73
2022/10/30 03:35:38;;;;;;;21.48;16.45;;;15.60;99.90;;;;;;5019566;28;20029;-74
2022/10/30 03:38:03;;;;;;;24.00;16.23;;;15.60;99.90;;;;;;5020091;28;20665;-74
2022/10/30 03:40:29;;;;;;;19.85;16.02;;;15.60;99.90;;;;;;5006973;28;20069;-74
2022/10/30 03:42:54;;;;;;;21.83;15.68;;;15.60;99.90;;;;;;5006972;28;20049;-75
2022/10/30 03:45:20;;;;;;;24.05;16.65;;;15.60;99.90;;;;;;5006544;28;20038;-74
2022/10/30 03:47:45;;;;;;;24.60;16.25;;;15.70;99.90;;;;;;5005030;28;20040;-75
2022/10/30 03:50:11;;;;;;;25.88;15.95;;;15.60;99.90;;;;;;5003878;28;20693;-74
2022/10/30 03:52:37;;;;;;;22.15;15.63;;;15.60;99.90;;;;;;5003529;28;20626;-74
2022/10/30 03:55:02;;;;;;;19.02;14.93;;;15.70;99.90;;;;;;5003122;28;20029;-73
2022/10/30 03:57:28;;;;;;;19.58;15.10;;;15.70;99.90;;;;;;5003257;28;20152;-74
2022/10/30 03:59:54;;;;;;;23.45;17.35;;;15.70;99.90;;;;;;5002130;28;20026;-75
2022/10/30 04:02:19;;;;;;;23.67;15.82;;;15.70;99.90;;;;;;5002244;28;20037;-74
2022/10/30 04:04:45;;;;;;;22.85;16.25;;;15.70;99.90;;;;;;5001898;28;20056;-73
2022/10/30 04:07:10;;;;;;;21.63;14.95;;;15.70;99.90;;;;;;5002841;28;20755;-73
2022/10/30 04:09:36;;;;;;;20.15;14.35;;;15.70;99.90;;;;;;5001646;28;20504;-74
2022/10/30 04:12:01;;;;;;;20.38;15.57;;;15.70;99.90;;;;;;4999935;28;20088;-75
2022/10/30 04:14:27;;;;;;;21.30;14.98;;;15.70;99.90;;;;;;5006282;28;20500;-74
2022/10/30 04:16:53;;;;;;;22.13;13.95;;;15.80;99.90;;;;;;5001534;28;20026;-74
2022/10/30 04:19:18;;;;;;;20.17;14.85;;;15.80;99.90;;;;;;5003143;28;20022;-74
2022/10/30 04:21:46;;;;;;;19.65;14.48;;;15.80;99.90;;;;;;4999650;28;20049;-74
2022/10/30 04:24:15;;;;;;;19.55;14.05;;;15.80;99.90;;;;;;5001295;28;20048;-75
2022/10/30 04:26:42;;;;;;;21.95;14.55;;;15.80;99.90;;;;;;5001878;28;20049;-75
2022/10/30 04:29:07;;;;;;;24.70;15.07;;;15.90;99.90;;;;;;5001217;28;20025;-74
2022/10/30 04:31:33;;;;;;;19.80;14.55;;;15.90;99.90;;;;;;5003128;28;20596;-74
2022/10/30 04:33:59;;;;;;;22.20;16.45;;;15.90;99.90;;;;;;5001373;28;20037;-74
2022/10/30 04:36:29;;;;;;;25.38;16.00;;;15.80;99.90;;;;;;5003135;28;20033;-75
2022/10/30 04:38:55;;;;;;;20.38;14.68;;;15.80;99.90;;;;;;5002955;28;20034;-74
2022/10/30 04:41:21;;;;;;;20.95;15.02;;;15.70;99.90;;;;;;5001658;28;20025;-74
2022/10/30 04:43:50;;;;;;;22.35;14.23;;;15.70;99.90;;;;;;5002449;28;20119;-73
2022/10/30 04:46:16;;;;;;;22.55;15.10;;;15.70;99.90;;;;;;5000990;28;20095;-74
2022/10/30 04:48:43;;;;;;;19.70;14.60;;;15.70;99.90;;;;;;5001843;28;21435;-72
2022/10/30 04:51:10;;;;;;;21.17;15.90;;;15.70;99.90;;;;;;5001170;28;20046;-73
2022/10/30 04:53:37;;;;;;;19.08;13.88;;;15.70;99.90;;;;;;5003031;28;20030;-74
2022/10/30 04:56:03;;;;;;;17.80;13.30;;;15.70;99.90;;;;;;5000402;28;20042;-73
2022/10/30 04:58:29;;;;;;;25.70;14.57;;;15.70;99.90;;;;;;5002849;28;20053;-75
2022/10/30 05:01:03;;;;;;;24.65;15.82;;;15.70;99.90;;;;;;5001590;28;20125;-75
2022/10/30 05:03:29;;;;;;;19.75;14.80;;;15.70;99.90;;;;;;5002003;28;20030;-75
2022/10/30 05:05:58;;;;;;;21.77;14.63;;;15.70;99.90;;;;;;5001596;28;20042;-75
2022/10/30 05:08:24;;;;;;;21.05;15.90;;;15.70;99.90;;;;;;5001867;28;20432;-75
2022/10/30 05:10:50;;;;;;;25.92;15.27;;;15.70;99.90;;;;;;5001617;28;20033;-75
2022/10/30 05:13:15;;;;;;;24.02;14.45;;;15.70;99.90;;;;;;4997779;28;20089;-75
2022/10/30 05:15:41;;;;;;;19.55;14.10;;;15.70;99.90;;;;;;5002358;28;20079;-75
2022/10/30 05:18:07;;;;;;;23.13;14.60;;;15.70;99.90;;;;;;4999639;28;20104;-75
2022/10/30 05:20:32;;;;;;;19.67;14.30;;;15.80;99.90;;;;;;5000157;28;20065;-76
2022/10/30 05:22:58;;;;;;;22.65;14.52;;;15.80;99.90;;;;;;5000634;28;20025;-75
2022/10/30 05:25:25;;;;;;;21.30;14.30;;;15.70;99.90;;;;;;5001135;28;20038;-74
2022/10/30 05:28:03;;;;;;;20.05;14.55;;;15.80;99.90;;;;;;4998369;28;20030;-74
2022/10/30 05:30:31;;;;;;;18.55;13.68;;;15.80;99.90;;;;;;5001098;28;20030;-74
2022/10/30 05:33:02;;;;;;;18.45;13.75;;;15.80;99.90;;;;;;5000744;28;20038;-74
2022/10/30 05:35:31;;;;;;;20.55;13.50;;;15.80;99.90;;;;;;5001918;28;20515;-74
2022/10/30 05:37:58;;;;;;;22.65;14.32;;;15.80;99.90;;;;;;5001530;28;20110;-74
2022/10/30 05:40:24;;;;;;;21.40;14.43;;;15.80;99.90;;;;;;4998996;28;20373;-73
2022/10/30 05:42:49;;;;;;;21.08;14.35;;;15.80;99.90;;;;;;5003411;28;20053;-73
2022/10/30 05:45:16;;;;;;;24.20;14.30;;;15.80;99.90;;;;;;5001125;28;20052;-74
2022/10/30 05:47:42;;;;;;;18.20;15.05;;;15.80;99.90;;;;;;4999560;28;20029;-74
2022/10/30 05:50:09;;;;;;;17.70;13.30;;;15.80;99.90;;;;;;5000834;28;20038;-74
2022/10/30 05:52:34;;;;;;;18.40;13.45;;;15.80;99.90;;;;;;5001693;28;20037;-74
2022/10/30 05:55:00;;;;;;;19.00;13.27;;;15.80;99.90;;;;;;5000572;28;20034;-74
2022/10/30 05:57:31;;;;;;;21.13;13.57;;;15.90;99.90;;;;;;5008212;28;20026;-74
2022/10/30 05:59:57;;;;;;;17.48;13.93;;;15.90;99.90;;;;;;5017474;28;20048;-74
2022/10/30 06:02:23;;;;;;;20.48;13.27;;;15.90;99.90;;;;;;5006453;28;20026;-74
2022/10/30 06:04:49;;;;;;;18.50;13.50;;;15.90;99.90;;;;;;5005127;28;20022;-76
2022/10/30 06:07:14;;;;;;;15.82;12.20;;;15.90;99.90;;;;;;5002767;28;20034;-74
2022/10/30 06:09:40;;;;;;;16.65;11.77;;;15.90;99.90;;;;;;5001527;28;20021;-74
2022/10/30 06:12:06;;;;;;;19.73;13.23;;;15.90;99.90;;;;;;5004423;28;20397;-75
2022/10/30 06:14:31;;;;;;;19.70;12.70;;;15.90;99.90;;;;;;5005242;28;20074;-75
2022/10/30 06:16:57;;;;;;;25.45;14.90;;;15.90;99.90;;;;;;5001920;28;20037;-74
2022/10/30 06:19:23;;;;;;;18.50;13.02;;;15.90;99.90;;;;;;5000210;28;20489;-75
2022/10/30 06:21:49;;;;;;;18.20;13.38;;;15.90;99.90;;;;;;4999513;28;20068;-76
2022/10/30 06:24:15;;;;;;;16.52;11.60;;;16.00;99.90;;;;;;5000934;28;20038;-75
2022/10/30 06:26:40;;;;;;;19.35;12.57;;;16.00;99.90;;;;;;5002039;28;20034;-75
2022/10/30 06:29:06;;;;;;;21.23;13.13;;;16.00;99.90;;;;;;5001334;28;20030;-76
2022/10/30 06:31:31;;;;;;;15.93;11.95;;;16.00;99.90;;;;;;5000746;28;20033;-76
2022/10/30 06:33:57;;;;;;;22.35;13.27;;;16.00;99.90;;;;;;4999543;28;20034;-76
2022/10/30 06:36:24;;;;;;;21.00;13.10;;;16.00;99.90;;;;;;5000060;28;20037;-76
2022/10/30 06:38:50;;;;;;;16.77;12.40;;;16.00;99.90;;;;;;5000657;28;20033;-75
2022/10/30 06:41:15;;;;;;;19.02;13.45;;;16.00;99.90;;;;;;4999727;28;20022;-68
2022/10/30 06:43:41;;;;;;;21.50;13.43;;;16.00;99.90;;;;;;5000237;28;20053;-72
2022/10/30 06:46:06;;;;;;;25.30;12.68;;;16.00;99.90;;;;;;5001384;28;20042;-69
2022/10/30 06:48:32;;;;;;;18.10;13.00;;;16.00;99.90;;;;;;5005927;28;20026;-70
2022/10/30 06:50:59;;;;;;;19.70;13.00;;;16.10;99.90;;;;;;5004540;28;21318;-72
2022/10/30 06:53:25;;;;;;;17.58;12.98;;;16.10;99.90;;;;;;5003280;28;20046;-70
2022/10/30 06:56:01;;;;;;;19.35;12.73;;;16.10;99.90;;;;;;5004691;28;20056;-71
2022/10/30 06:58:27;;;;;;;22.52;12.40;;;16.20;99.90;;;;;;5007017;28;20026;-71
2022/10/30 07:00:54;;;;;;;16.48;11.60;;;16.20;99.90;;;;;;5004939;28;20121;-70
2022/10/30 07:03:19;;;;;;;18.33;11.88;;;16.20;99.90;;;;;;5003805;28;20038;-69
2022/10/30 07:05:45;;;;;;;18.20;12.25;;;16.30;99.90;;;;;;5001367;28;20045;-69
2022/10/30 07:08:11;;;;;;;23.20;12.90;;;16.30;99.90;;;;;;5002967;28;20057;-69
2022/10/30 07:10:37;;;;;;;19.45;13.20;;;16.30;99.90;;;;;;5007792;28;20029;-69
2022/10/30 07:13:03;;;;;;;16.50;12.05;;;16.40;99.90;;;;;;5002717;28;20487;-69
2022/10/30 07:15:28;;;;;;;17.52;12.07;;;16.40;99.90;;;;;;5002655;28;20497;-69
2022/10/30 07:17:56;;;;;;;20.88;12.13;;;16.40;99.90;;;;;;5002381;28;20038;-69
2022/10/30 07:20:22;;;;;;;19.33;12.38;;;16.40;99.90;;;;;;5005945;28;20115;-69
2022/10/30 07:22:48;;;;;;;22.10;12.82;;;16.40;99.90;;;;;;5004172;28;20077;-68
2022/10/30 07:25:13;;;;;;;22.10;13.40;;;16.40;99.90;;;;;;5002989;28;20132;-68
2022/10/30 07:27:44;;;;;;;20.55;13.43;;;16.40;99.90;;;;;;5002863;28;20038;-68
2022/10/30 07:30:14;;;;;;;22.95;14.45;;;16.40;99.90;;;;;;5004487;28;20052;-69
2022/10/30 07:32:41;;;;;;;19.80;13.23;;;16.40;99.90;;;;;;5003587;28;20037;-68
2022/10/30 07:35:07;;;;;;;19.40;12.20;;;16.40;99.90;;;;;;5004523;28;20030;-72
2022/10/30 07:37:33;;;;;;;16.90;13.00;;;16.40;99.90;;;;;;5001456;28;20053;-69
2022/10/30 07:40:00;;;;;;;18.00;13.30;;;16.40;99.90;;;;;;5002080;28;20455;-70
2022/10/30 07:42:25;;;;;;;21.48;12.88;;;16.40;99.90;;;;;;5004622;28;20041;-70
2022/10/30 07:44:52;;;;;;;24.00;13.50;;;16.40;99.90;;;;;;5004028;28;20424;-70
2022/10/30 07:47:18;;;;;;;19.00;13.50;;;16.30;99.90;;;;;;5002261;28;20039;-70
2022/10/30 07:49:43;;;;;;;18.15;14.73;;;16.40;99.90;;;;;;5003130;28;20076;-71
2022/10/30 07:52:09;;;;;;;21.27;13.27;;;16.50;99.90;;;;;;5005842;28;20040;-70
2022/10/30 07:54:34;;;;;;;13.88;11.68;;;16.50;99.90;;;;;;5002246;28;20029;-70
2022/10/30 07:57:00;;;;;;;17.65;13.38;;;16.50;99.90;;;;;;5002162;28;20026;-70
2022/10/30 07:59:25;;;;;;;19.15;12.93;;;16.50;99.90;;;;;;5003853;28;20038;-70
2022/10/30 08:01:51;;;;;;;17.77;12.75;;;16.50;99.90;;;;;;5001797;28;20368;-69
2022/10/30 08:04:17;;;;;;;17.23;12.93;;;16.60;99.90;;;;;;5002341;28;20397;-70
2022/10/30 08:06:42;;;;;;;18.45;13.35;;;16.60;99.90;;;;;;5001202;28;20037;-70
2022/10/30 08:09:08;;;;;;;16.50;12.18;;;16.60;99.90;;;;;;5001184;28;20820;-71
2022/10/30 08:11:34;;;;;;;17.73;12.60;;;16.70;99.90;;;;;;5002620;28;20037;-71
2022/10/30 08:14:00;;;;;;;22.52;11.80;;;16.70;99.90;;;;;;5001651;28;20133;-70
2022/10/30 08:16:26;;;;;;;27.55;14.07;;;16.80;99.90;;;;;;5003796;28;20037;-70
2022/10/30 08:18:52;;;;;;;21.98;12.88;;;16.90;99.90;;;;;;5003909;28;20393;-69
2022/10/30 08:21:18;;;;;;;16.60;12.55;;;16.90;99.90;;;;;;5009466;28;20130;-70
2022/10/30 08:23:46;;;;;;;16.95;11.30;;;16.90;99.90;;;;;;5007864;28;20401;-70
2022/10/30 08:26:12;;;;;;;21.48;13.25;;;17.00;99.90;;;;;;5004676;28;20042;-71
2022/10/30 08:28:38;;;;;;;15.90;11.38;;;17.00;99.90;;;;;;5002157;28;20092;-70
2022/10/30 08:31:04;;;;;;;21.80;12.95;;;17.10;99.90;;;;;;5003383;28;20105;-70
2022/10/30 08:33:30;;;;;;;24.63;14.20;;;17.10;99.90;;;;;;5003010;28;20084;-70
2022/10/30 08:36:00;;;;;;;17.42;11.63;;;17.20;99.90;;;;;;5001603;28;20481;-70
2022/10/30 08:38:27;;;;;;;24.42;12.80;;;17.20;99.90;;;;;;5002793;28;20025;-70
2022/10/30 08:40:52;;;;;;;15.52;11.15;;;17.30;99.90;;;;;;5002400;28;20038;-70
2022/10/30 08:43:19;;;;;;;19.95;10.48;;;17.30;99.90;;;;;;5001199;28;20053;-70
2022/10/30 08:45:45;;;;;;;20.92;10.75;;;17.30;99.90;;;;;;5001123;28;20564;-71
2022/10/30 08:48:13;;;;;;;13.60;9.65;;;17.40;99.90;;;;;;5001641;28;20026;-70
2022/10/30 08:50:39;;;;;;;17.50;10.27;;;17.40;99.90;;;;;;5000763;28;20050;-71
2022/10/30 08:53:07;;;;;;;17.88;9.57;;;17.50;99.90;;;;;;5002047;28;20115;-70
2022/10/30 08:55:33;;;;;;;18.73;10.82;;;17.60;99.90;;;;;;5001392;28;20521;-70
2022/10/30 08:57:59;;;;;;;13.00;9.43;;;17.60;99.90;;;;;;5000576;28;20087;-70
2022/10/30 09:00:26;;;;;;;16.60;9.10;;;17.70;99.90;;;;;;5001254;28;20053;-70
2022/10/30 09:02:52;;;;;;;14.43;8.63;;;17.80;99.90;;;;;;5017055;28;20066;-70
2022/10/30 09:05:18;;;;;;;15.07;9.10;;;17.90;99.90;;;;;;5000788;28;20462;-71
2022/10/30 09:07:44;;;;;;;17.15;9.48;;;17.90;99.90;;;;;;5001919;28;20040;-70
2022/10/30 09:10:10;;;;;;;15.88;9.57;;;18.00;99.90;;;;;;5001516;28;20010;-71
2022/10/30 09:12:35;;;;;;;12.60;8.70;;;18.10;99.90;;;;;;5000202;28;20099;-70
2022/10/30 09:15:03;;;;;;;17.60;10.13;;;18.20;99.90;;;;;;5003723;28;20481;-71
2022/10/30 09:17:28;;;;;;;18.55;8.50;;;18.30;99.90;;;;;;5000887;28;20116;-71
2022/10/30 09:19:54;;;;;;;14.32;7.82;;;18.30;99.90;;;;;;5007283;28;20105;-70
2022/10/30 09:22:20;;;;;;;14.70;8.73;;;18.40;99.90;;;;;;5002004;28;20125;-71
2022/10/30 09:24:45;;;;;;;18.58;8.25;;;18.40;99.90;;;;;;5003287;28;20112;-70
2022/10/30 09:27:11;;;;;;;18.50;9.45;;;18.40;99.90;;;;;;5002602;28;20033;-71
2022/10/30 09:29:36;;;;;;;14.65;8.52;;;18.50;99.90;;;;;;5006697;28;20037;-69
2022/10/30 09:32:07;;;;;;;15.95;8.88;;;18.50;99.90;;;;;;5000472;28;20080;-69
2022/10/30 09:34:33;;;;;;;15.77;8.70;;;18.60;99.90;;;;;;5001790;28;20507;-70
2022/10/30 09:36:59;;;;;;;14.23;8.63;;;18.60;99.90;;;;;;4999926;28;20033;-70
2022/10/30 09:39:24;;;;;;;15.25;8.43;;;18.60;99.90;;;;;;5001797;28;20018;-69
2022/10/30 09:42:27;;;;;;;13.93;8.20;;;18.70;99.90;;;;;;5000505;28;20022;-69
2022/10/30 09:45:15;;;;;;;16.25;8.32;;;18.70;99.90;;;;;;4999797;28;20590;-70
2022/10/30 09:47:42;;;;;;;14.23;8.63;;;18.70;99.90;;;;;;4999661;28;20049;-69
2022/10/30 09:50:17;;;;;;;17.98;8.82;;;18.70;99.90;;;;;;4998662;28;20044;-67
2022/10/30 09:53:08;;;;;;;13.38;7.95;;;18.80;99.90;;;;;;5000370;28;20048;-70
2022/10/30 09:55:46;;;;;;;12.30;7.63;;;18.80;99.90;;;;;;4998877;28;20531;-72
2022/10/30 09:58:25;;;;;;;9.90;7.38;;;18.90;99.90;;;;;;5000436;28;20038;-68
2022/10/30 10:01:15;;;;;;;17.27;7.90;;;18.90;99.90;;;;;;5001812;28;20038;-71
2022/10/30 10:03:59;;;;;;;14.13;7.30;;;19.00;99.90;;;;;;5000744;28;20026;-69
2022/10/30 10:06:26;;;;;;;10.48;6.97;;;19.00;99.90;;;;;;5000150;28;20100;-70
2022/10/30 10:09:06;;;;;;;13.27;7.28;;;19.10;99.90;;;;;;5000019;28;20034;-70
2022/10/30 10:11:39;;;;;;;13.02;7.70;;;19.10;99.90;;;;;;5001984;28;20042;-69
2022/10/30 10:14:22;;;;;;;19.90;7.55;;;19.20;99.90;;;;;;5004871;28;20049;-71
2022/10/30 10:16:53;;;;;;;11.15;7.70;;;19.20;99.90;;;;;;5002677;28;20045;-71
2022/10/30 10:19:20;;;;;;;13.38;7.22;;;19.30;99.90;;;;;;5001565;28;20037;-74
2022/10/30 10:21:51;;;;;;;11.68;7.05;;;19.40;99.90;;;;;;5001353;28;20028;-72
2022/10/30 10:24:21;;;;;;;7.97;5.60;;;19.40;99.90;;;;;;5000978;28;20057;-70
2022/10/30 10:26:49;;;;;;;12.48;6.68;;;19.50;99.50;;;;;;5001742;28;20045;-71
2022/10/30 10:29:52;;;;;;;11.60;6.88;;;19.60;99.40;;;;;;4998920;28;20034;-71
2022/10/30 10:32:41;;;;;;;11.40;6.18;;;19.60;99.50;;;;;;4998717;28;20032;-69
2022/10/30 10:35:10;;;;;;;12.18;5.97;;;19.70;99.30;;;;;;5002393;28;20041;-68
2022/10/30 10:37:52;;;;;;;12.02;7.53;;;19.80;98.90;;;;;;4999884;28;20042;-68
2022/10/30 10:40:55;;;;;;;11.00;6.15;;;19.80;98.70;;;;;;4998607;28;20120;-68
2022/10/30 10:43:27;;;;;;;11.60;5.68;;;19.90;98.60;;;;;;4997882;28;20119;-69
2022/10/30 10:45:58;;;;;;;9.35;5.47;;;19.90;98.50;;;;;;5000497;28;20045;-69
2022/10/30 10:48:51;;;;;;;10.15;6.13;;;20.00;98.30;;;;;;4999602;28;20053;-69
2022/10/30 10:51:23;;;;;;;9.15;5.03;;;20.10;98.20;;;;;;4999131;28;20029;-69
2022/10/30 10:54:02;;;;;;;9.65;5.32;;;20.10;98.00;;;;;;4999694;28;20025;-68
2022/10/30 10:56:35;;;;;;;14.50;5.60;;;20.10;97.90;;;;;;5000387;28;20038;-69
2022/10/30 10:59:12;;;;;;;11.75;5.63;;;20.20;97.80;;;;;;4999404;28;20049;-70
2022/10/30 11:01:39;;;;;;;9.13;4.90;;;20.30;97.60;;;;;;4999586;28;20033;-69
2022/10/30 11:04:15;;;;;;;12.27;5.75;;;20.30;97.60;;;;;;5001753;28;20025;-68
2022/10/30 11:06:46;;;;;;;10.02;5.57;;;20.40;97.30;;;;;;4999228;28;20088;-69
2022/10/30 11:09:18;;;;;;;7.93;5.15;;;20.40;97.10;;;;;;4999420;28;20037;-69
2022/10/30 11:11:45;;;;;;;9.43;5.00;;;20.50;97.10;;;;;;5003101;28;20083;-69
2022/10/30 11:14:16;;;;;;;11.75;5.57;;;20.50;96.70;;;;;;4997043;28;20141;-69
2022/10/30 11:16:59;;;;;;;8.38;5.18;;;20.60;96.70;;;;;;5000131;28;20029;-69
2022/10/30 11:19:27;;;;;;;17.60;5.95;;;20.60;96.70;;;;;;5001081;28;20032;-60
2022/10/30 11:21:55;;;;;;;11.40;5.43;;;20.70;96.80;;;;;;5000661;28;20132;-69
2022/10/30 11:24:31;;;;;;;11.90;5.22;;;20.80;96.50;;;;;;4999457;28;20053;-70
2022/10/30 11:27:16;;;;;;;10.10;5.13;;;20.80;96.20;;;;;;5000634;28;20042;-70
2022/10/30 11:29:47;;;;;;;;;;;20.80;95.90;;;;;;4999652;28;20473;-69
2022/10/30 11:32:21;;;;;;;11.10;5.28;;;20.90;96.80;;;;;;5003817;28;19924;-70
2022/10/30 11:35:08;;;;;;;9.15;4.95;;;20.90;95.90;;;;;;5003165;28;20041;-70
2022/10/30 11:37:35;;;;;;;10.55;5.65;;;21.00;96.10;;;;;;5003736;28;20038;-71
2022/10/30 11:40:21;;;;;;;10.18;5.55;;;21.00;95.90;;;;;;5002066;28;20037;-72
2022/10/30 11:43:02;;;;;;;12.13;5.28;;;21.00;96.00;;;;;;5005215;28;20042;-70
2022/10/30 11:45:31;;;;;;;13.70;6.30;;;21.10;95.90;;;;;;5006637;28;20033;-73
2022/10/30 11:47:59;;;;;;;10.80;5.20;;;21.10;95.70;;;;;;5003821;28;20045;-70
2022/10/30 11:50:28;;;;;;;9.27;4.95;;;21.10;95.60;;;;;;5003342;28;20743;-69
2022/10/30 11:53:08;;;;;;;9.45;5.18;;;21.20;95.60;;;;;;4992589;28;20033;-69
2022/10/30 11:55:36;;;;;;;11.90;5.05;;;21.20;95.50;;;;;;5003050;28;20033;-70
2022/10/30 11:58:05;;;;;;;14.68;4.72;;;21.30;95.50;;;;;;5002757;28;20144;-70
2022/10/30 12:00:33;;;;;;;9.48;5.20;;;21.30;95.20;;;;;;5002419;28;20045;-71
2022/10/30 12:02:59;;;;;;;12.63;4.47;;;21.30;95.10;;;;;;5001310;28;20038;-70
2022/10/30 12:05:34;;;;;;;6.95;4.50;;;21.30;95.10;;;;;;5003121;28;20036;-69
2022/10/30 12:08:05;;;;;;;10.68;5.00;;;21.30;95.30;;;;;;5006809;28;20033;-70
2022/10/30 12:10:42;;;;;;;13.88;4.97;;;21.40;95.00;;;;;;5014369;28;20033;-70
2022/10/30 12:13:14;;;;;;;16.20;5.97;;;21.40;95.00;;;;;;5013447;28;20741;-71
2022/10/30 12:15:41;;;;;;;8.95;4.85;;;21.40;94.70;;;;;;5013892;28;20034;-70
2022/10/30 12:18:18;;;;;;;10.27;4.60;;;21.40;94.70;;;;;;5013612;28;20084;-71
2022/10/30 12:20:51;;;;;;;11.38;5.28;;;21.50;94.60;;;;;;5011792;28;20034;-71
2022/10/30 12:23:24;;;;;;;9.93;4.65;;;21.50;94.40;;;;;;5007635;28;20533;-70
2022/10/30 12:26:10;;;;;;;11.75;4.63;;;21.50;94.40;;;;;;5001615;28;20055;-71
2022/10/30 12:28:37;;;;;;;9.98;4.75;;;21.50;94.50;;;;;;5002321;28;20112;-72
2022/10/30 12:31:40;;;;;;;9.68;5.32;;;21.60;94.40;;;;;;5001756;28;20116;-72
2022/10/30 12:34:21;;;;;;;11.13;4.93;;;21.60;94.40;;;;;;4997877;28;20038;-70
2022/10/30 12:37:07;;;;;;;10.43;5.03;;;21.60;94.30;;;;;;5001780;28;20056;-70
2022/10/30 12:39:57;;;;;;;11.10;6.03;;;21.60;94.20;;;;;;5001960;28;20544;-71
2022/10/30 12:42:24;;;;;;;9.68;5.13;;;21.70;94.20;;;;;;5003065;28;20070;-75